createdAt,value
2018-04-12T00:01:20.853Z,82.80
2018-04-12T00:03:49.203Z,83.50
2018-04-12T00:06:16.696Z,83.40
2018-04-12T00:08:45.042Z,83.60
2018-04-12T00:11:12.529Z,83.40
2018-04-12T00:13:40.976Z,86.60
2018-04-12T00:16:08.727Z,86.50
2018-04-12T00:18:37.051Z,89.70
2018-04-12T00:21:04.604Z,89.70
2018-04-12T00:23:33.072Z,90.30
2018-04-12T00:26:00.577Z,90.20
2018-04-12T00:28:28.059Z,90.90
2018-04-12T00:30:55.571Z,91.20
2018-04-12T00:33:23.050Z,91.60
2018-04-12T00:35:50.569Z,91.80
2018-04-12T00:38:18.897Z,92.40
2018-04-12T00:40:46.445Z,92.40
2018-04-12T00:43:13.936Z,92.90
2018-04-12T00:45:41.539Z,92.80
2018-04-12T00:48:09.083Z,93.30
2018-04-12T00:50:37.384Z,94.10
2018-04-12T00:53:04.946Z,94.10
2018-04-12T00:55:32.443Z,94.40
2018-04-12T00:57:59.961Z,94.50
2018-04-12T01:00:27.446Z,94.90
2018-04-12T01:02:54.932Z,95.20
2018-04-12T01:05:22.490Z,95.70
2018-04-12T01:07:50.737Z,96.50
2018-04-12T01:10:18.262Z,96.50
2018-04-12T01:12:45.754Z,96.80
2018-04-12T01:15:13.257Z,96.70
2018-04-12T01:17:40.850Z,97.40
2018-04-12T01:20:08.343Z,97.40
2018-04-12T01:22:35.932Z,97.80
2018-04-12T01:25:03.458Z,97.70
2018-04-12T01:27:31.271Z,97.80
2018-04-12T01:29:58.765Z,98.40
2018-04-12T01:32:26.251Z,98.70
2018-04-12T01:34:54.520Z,98.40
2018-04-12T01:37:22.003Z,98.30
2018-04-12T01:39:49.516Z,98.40
2018-04-12T01:42:17.011Z,99.10
2018-04-12T01:44:45.340Z,99.80
2018-04-12T01:47:12.829Z,99.80
2018-04-12T01:49:40.329Z,99.90
2018-04-12T01:52:07.857Z,99.90
2018-04-12T01:54:36.110Z,99.60
2018-04-12T01:57:03.772Z,99.60
2018-04-12T01:59:31.261Z,99.90
2018-04-12T02:01:58.769Z,99.90
2018-04-12T02:04:26.275Z,99.90
2018-04-12T02:06:53.793Z,99.90
2018-04-12T02:09:21.292Z,99.90
2018-04-12T02:11:48.874Z,99.90
2018-04-12T02:14:16.374Z,99.90
2018-04-12T02:16:43.860Z,99.90
2018-04-12T02:19:11.388Z,99.90
2018-04-12T02:21:38.916Z,99.90
2018-04-12T02:24:06.454Z,99.90
2018-04-12T02:26:33.929Z,99.90
2018-04-12T02:29:01.455Z,99.90
2018-04-12T02:31:28.947Z,99.90
2018-04-12T02:33:56.456Z,99.90
2018-04-12T02:36:24.731Z,99.90
2018-04-12T02:38:53.013Z,99.90
2018-04-12T02:41:21.291Z,99.90
2018-04-12T02:43:48.818Z,99.90
2018-04-12T02:46:16.319Z,99.90
2018-04-12T02:48:43.858Z,99.90
2018-04-12T02:51:12.111Z,99.90
2018-04-12T02:53:39.630Z,99.90
2018-04-12T02:56:07.203Z,99.90
2018-04-12T02:58:34.707Z,99.90
2018-04-12T03:01:03.007Z,99.90
2018-04-12T03:03:30.574Z,99.90
2018-04-12T03:05:58.790Z,99.90
2018-04-12T03:08:26.301Z,99.90
2018-04-12T03:10:53.797Z,99.90
2018-04-12T03:13:21.311Z,99.90
2018-04-12T03:15:48.936Z,99.90
2018-04-12T03:18:16.461Z,99.90
2018-04-12T03:20:43.951Z,99.90
2018-04-12T03:23:11.514Z,99.90
2018-04-12T03:25:39.066Z,99.90
2018-04-12T03:28:06.579Z,99.90
2018-04-12T03:30:34.076Z,99.90
2018-04-12T03:33:02.368Z,99.90
2018-04-12T03:35:30.659Z,99.90
2018-04-12T03:37:58.313Z,99.90
2018-04-12T03:40:25.860Z,99.90
2018-04-12T03:42:54.146Z,99.90
2018-04-12T03:45:21.684Z,99.90
2018-04-12T03:47:49.167Z,99.90
2018-04-12T03:50:16.717Z,99.90
2018-04-12T03:52:44.263Z,99.90
2018-04-12T03:55:11.819Z,99.90
2018-04-12T03:57:39.386Z,99.90
2018-04-12T04:00:07.649Z,99.90
2018-04-12T04:02:35.138Z,99.90
2018-04-12T04:05:02.721Z,99.90
2018-04-12T04:07:30.334Z,99.90
2018-04-12T04:09:57.834Z,99.90
2018-04-12T04:12:25.375Z,99.90
2018-04-12T04:18:20.049Z,99.90
2018-04-12T04:21:12.276Z,99.90
2018-04-12T04:23:39.820Z,99.90
2018-04-12T04:26:07.304Z,99.90
2018-04-12T04:28:34.820Z,99.90
2018-04-12T04:31:02.311Z,99.90
2018-04-12T04:33:29.801Z,99.90
2018-04-12T04:35:57.387Z,99.90
2018-04-12T04:38:24.869Z,99.90
2018-04-12T04:40:52.506Z,99.90
2018-04-12T04:43:20.028Z,99.90
2018-04-12T04:45:47.508Z,99.90
2018-04-12T04:48:15.163Z,99.90
2018-04-12T04:50:42.627Z,99.90
2018-04-12T04:53:10.120Z,99.90
2018-04-12T04:55:37.634Z,99.90
2018-04-12T04:58:05.150Z,99.90
2018-04-12T05:00:32.663Z,99.90
2018-04-12T05:03:00.149Z,99.90
2018-04-12T05:05:27.665Z,99.90
2018-04-12T05:07:55.155Z,99.90
2018-04-12T05:10:22.642Z,99.90
2018-04-12T05:12:50.175Z,99.90
2018-04-12T05:15:17.679Z,99.90
2018-04-12T05:17:45.952Z,99.90
2018-04-12T05:20:14.227Z,99.90
2018-04-12T05:22:41.754Z,99.90
2018-04-12T05:25:09.238Z,99.90
2018-04-12T05:27:37.540Z,99.90
2018-04-12T05:30:05.077Z,99.90
2018-04-12T05:32:33.325Z,99.90
2018-04-12T05:35:00.871Z,99.90
2018-04-12T05:37:28.380Z,99.90
2018-04-12T05:39:55.902Z,99.90
2018-04-12T05:42:23.426Z,99.90
2018-04-12T05:44:50.902Z,99.90
2018-04-12T05:47:18.381Z,99.90
2018-04-12T05:49:45.888Z,99.90
2018-04-12T05:52:13.385Z,99.90
2018-04-12T05:54:40.889Z,99.90
2018-04-12T05:57:08.370Z,99.90
2018-04-12T05:59:35.888Z,99.90
2018-04-12T06:02:04.167Z,99.90
2018-04-12T06:04:32.417Z,99.90
2018-04-12T06:06:59.888Z,99.90
2018-04-12T06:09:28.264Z,99.90
2018-04-12T06:11:56.535Z,99.90
2018-04-12T06:14:24.824Z,99.90
2018-04-12T06:16:52.345Z,99.90
2018-04-12T06:19:20.106Z,99.90
2018-04-12T06:21:47.605Z,99.90
2018-04-12T06:24:15.915Z,99.90
2018-04-12T06:26:43.391Z,99.90
2018-04-12T06:29:10.880Z,99.90
2018-04-12T06:31:39.211Z,99.90
2018-04-12T06:34:06.707Z,99.90
2018-04-12T06:36:34.231Z,99.90
2018-04-12T06:39:01.818Z,99.90
2018-04-12T06:41:29.334Z,99.90
2018-04-12T06:43:56.913Z,99.90
2018-04-12T06:46:24.441Z,99.60
2018-04-12T06:48:51.943Z,99.30
2018-04-12T06:51:19.456Z,98.80
2018-04-12T06:53:46.951Z,98.50
2018-04-12T06:56:14.477Z,97.80
2018-04-12T06:58:42.011Z,97.90
2018-04-12T07:01:09.563Z,97.90
2018-04-12T07:03:37.823Z,97.00
2018-04-12T07:06:06.110Z,96.80
2018-04-12T07:08:33.637Z,96.70
2018-04-12T07:11:01.171Z,96.30
2018-04-12T07:13:28.700Z,95.70
2018-04-12T07:15:56.188Z,95.60
2018-04-12T07:18:23.718Z,95.20
2018-04-12T07:20:51.256Z,94.30
2018-04-12T07:23:19.588Z,93.20
2018-04-12T07:25:47.112Z,93.10
2018-04-12T07:28:14.596Z,92.70
2018-04-12T07:30:42.150Z,92.20
2018-04-12T07:33:09.654Z,91.50
2018-04-12T07:35:37.933Z,90.90
2018-04-12T07:38:06.184Z,91.20
2018-04-12T07:40:33.751Z,91.20
2018-04-12T07:43:01.252Z,91.70
2018-04-12T07:45:28.781Z,92.40
2018-04-12T07:47:56.281Z,93.30
2018-04-12T07:50:23.774Z,93.50
2018-04-12T07:52:51.294Z,93.80
2018-04-12T07:55:19.677Z,93.90
2018-04-12T07:57:47.248Z,93.90
2018-04-12T08:00:14.722Z,93.90
2018-04-12T08:02:42.242Z,93.90
2018-04-12T08:05:09.777Z,94.60
2018-04-12T08:07:38.056Z,93.40
2018-04-12T08:10:06.315Z,93.30
2018-04-12T08:12:34.594Z,93.10
2018-04-12T08:15:02.887Z,92.80
2018-04-12T08:17:30.401Z,92.80
2018-04-12T08:19:58.019Z,92.80
2018-04-12T08:22:25.513Z,92.90
2018-04-12T08:24:53.022Z,92.60
2018-04-12T08:27:20.533Z,92.60
2018-04-12T08:29:48.077Z,92.20
2018-04-12T08:32:15.607Z,92.40
2018-04-12T08:34:43.090Z,91.70
2018-04-12T08:37:10.592Z,90.80
2018-04-12T08:39:38.870Z,89.10
2018-04-12T08:42:07.187Z,85.90
2018-04-12T08:44:34.678Z,85.70
2018-04-12T08:47:02.249Z,84.70
2018-04-12T08:49:29.751Z,82.30
2018-04-12T08:51:57.263Z,81.50
2018-04-12T08:54:24.782Z,81.00
2018-04-12T08:56:52.365Z,80.50
2018-04-12T08:59:19.896Z,79.30
2018-04-12T09:01:47.460Z,79.40
2018-04-12T09:04:14.946Z,79.00
2018-04-12T09:06:42.494Z,78.70
2018-04-12T09:09:09.985Z,78.70
2018-04-12T09:11:38.241Z,78.70
2018-04-12T09:14:05.825Z,78.70
2018-04-12T09:16:34.137Z,77.70
2018-04-12T09:19:01.618Z,77.60
2018-04-12T09:21:29.125Z,76.10
2018-04-12T09:23:56.662Z,75.80
2018-04-12T09:26:24.929Z,76.30
2018-04-12T09:28:52.443Z,76.30
2018-04-12T09:31:19.967Z,74.70
2018-04-12T09:33:47.489Z,75.20
2018-04-12T09:36:14.960Z,73.30
2018-04-12T09:38:42.452Z,72.60
2018-04-12T09:41:09.939Z,70.50
2018-04-12T09:43:37.462Z,68.10
2018-04-12T09:46:05.019Z,67.90
2018-04-12T09:48:32.516Z,66.30
2018-04-12T09:51:00.063Z,65.40
2018-04-12T09:53:27.576Z,66.30
2018-04-12T09:55:55.850Z,67.20
2018-04-12T09:58:24.169Z,67.70
2018-04-12T10:00:55.500Z,67.70
2018-04-12T10:03:23.005Z,65.80
2018-04-12T10:05:56.252Z,64.60
2018-04-12T10:08:28.691Z,63.30
2018-04-12T10:10:56.970Z,61.70
2018-04-12T10:13:25.214Z,60.80
2018-04-12T10:15:52.747Z,60.80
2018-04-12T10:18:20.462Z,59.60
2018-04-12T10:20:48.727Z,60.00
2018-04-12T10:23:16.671Z,59.70
2018-04-12T10:25:44.657Z,60.00
2018-04-12T10:28:12.464Z,59.30
2018-04-12T10:30:39.997Z,60.10
2018-04-12T10:33:08.286Z,60.00
2018-04-12T10:35:36.578Z,59.60
2018-04-12T10:38:04.061Z,59.60
2018-04-12T10:40:31.565Z,59.70
2018-04-12T10:42:59.810Z,58.20
2018-04-12T10:45:27.336Z,58.10
2018-04-12T10:47:54.845Z,58.70
2018-04-12T10:50:22.417Z,59.00
2018-04-12T10:52:50.683Z,57.30
2018-04-12T10:55:18.961Z,57.50
2018-04-12T10:57:47.255Z,56.20
2018-04-12T11:00:15.527Z,55.20
2018-04-12T11:02:43.787Z,55.20
2018-04-12T11:05:12.077Z,55.50
2018-04-12T11:07:39.679Z,55.40
2018-04-12T11:10:07.168Z,55.90
2018-04-12T11:12:34.660Z,55.10
2018-04-12T11:15:02.182Z,54.90
2018-04-12T11:17:29.683Z,54.90
2018-04-12T11:19:57.203Z,55.30
2018-04-12T11:22:24.709Z,54.30
2018-04-12T11:24:52.212Z,53.90
2018-04-12T11:27:19.700Z,53.70
2018-04-12T11:29:47.217Z,54.30
2018-04-12T11:32:14.956Z,53.90
2018-04-12T11:34:42.504Z,54.50
2018-04-12T11:37:10.020Z,53.70
2018-04-12T11:39:38.295Z,52.70
2018-04-12T11:42:06.550Z,54.60
2018-04-12T11:44:34.055Z,54.00
2018-04-12T11:47:01.579Z,53.00
2018-04-12T11:49:29.062Z,52.20
2018-04-12T11:51:57.288Z,51.10
2018-04-12T11:54:24.761Z,51.40
2018-04-12T11:56:52.238Z,52.00
2018-04-12T11:59:20.537Z,51.20
2018-04-12T12:01:48.261Z,51.20
2018-04-12T12:04:15.767Z,52.00
2018-04-12T12:06:43.293Z,51.50
2018-04-12T12:09:11.582Z,51.60
2018-04-12T12:11:39.116Z,51.60
2018-04-12T12:14:07.434Z,50.20
2018-04-12T12:16:34.938Z,49.60
2018-04-12T12:19:02.426Z,49.60
2018-04-12T12:21:29.941Z,49.40
2018-04-12T12:23:57.457Z,50.20
2018-04-12T12:26:25.700Z,49.90
2018-04-12T12:28:54.162Z,49.40
2018-04-12T12:31:21.644Z,49.30
2018-04-12T12:33:49.893Z,49.60
2018-04-12T12:36:17.435Z,49.50
2018-04-12T12:38:44.941Z,48.90
2018-04-12T12:41:13.192Z,50.20
2018-04-12T12:43:40.703Z,50.20
2018-04-12T12:46:08.248Z,49.80
2018-04-12T12:48:35.894Z,49.70
2018-04-12T12:51:03.455Z,49.80
2018-04-12T12:53:30.988Z,49.70
2018-04-12T12:55:58.544Z,49.20
2018-04-12T12:58:25.979Z,49.40
2018-04-12T13:00:53.503Z,48.30
2018-04-12T13:03:21.022Z,48.60
2018-04-12T13:05:48.520Z,48.80
2018-04-12T13:08:16.051Z,48.60
2018-04-12T13:10:44.335Z,51.30
2018-04-12T13:13:12.622Z,48.10
2018-04-12T13:15:40.123Z,48.00
2018-04-12T13:18:07.607Z,46.50
2018-04-12T13:20:35.906Z,46.90
2018-04-12T13:23:03.390Z,46.30
2018-04-12T13:25:30.893Z,45.30
2018-04-12T13:27:58.376Z,46.20
2018-04-12T13:30:25.881Z,45.50
2018-04-12T13:32:53.394Z,45.00
2018-04-12T13:35:20.980Z,45.90
2018-04-12T13:37:48.486Z,45.80
2018-04-12T13:40:16.786Z,45.10
2018-04-12T13:42:44.388Z,45.00
2018-04-12T13:45:11.918Z,44.80
2018-04-12T13:47:39.419Z,44.30
2018-04-12T13:50:06.930Z,46.10
2018-04-12T13:52:45.426Z,45.50
2018-04-12T13:55:13.708Z,46.20
2018-04-12T13:57:41.235Z,46.20
2018-04-12T14:00:08.783Z,45.90
2018-04-12T14:02:36.273Z,44.00
2018-04-12T14:05:04.534Z,44.70
2018-04-12T14:07:32.820Z,43.80
2018-04-12T14:10:01.093Z,45.60
2018-04-12T14:12:29.357Z,43.10
2018-04-12T14:14:56.884Z,43.10
2018-04-12T14:17:24.400Z,43.90
2018-04-12T14:19:51.979Z,43.50
2018-04-12T14:22:19.505Z,44.00
2018-04-12T14:24:47.751Z,42.10
2018-04-12T14:27:15.250Z,42.10
2018-04-12T14:29:42.797Z,42.20
2018-04-12T14:32:11.046Z,41.70
2018-04-12T14:34:38.537Z,41.60
2018-04-12T14:37:06.051Z,40.30
2018-04-12T14:39:33.555Z,40.10
2018-04-12T14:42:01.062Z,41.00
2018-04-12T14:44:28.594Z,42.70
2018-04-12T14:46:56.121Z,42.40
2018-04-12T14:49:23.621Z,41.70
2018-04-12T14:51:51.111Z,41.00
2018-04-12T14:54:19.227Z,39.90
2018-04-12T14:56:46.117Z,37.00
2018-04-12T14:59:13.610Z,36.40
2018-04-12T15:01:41.112Z,38.30
2018-04-12T15:04:08.655Z,35.00
2018-04-12T15:06:36.149Z,32.40
2018-04-12T15:09:03.668Z,32.20
2018-04-12T15:11:31.153Z,30.70
2018-04-12T15:13:58.651Z,29.50
2018-04-12T15:16:26.172Z,28.50
2018-04-12T15:18:53.698Z,26.50
2018-04-12T15:21:21.269Z,26.60
2018-04-12T15:23:48.751Z,27.20
2018-04-12T15:26:16.275Z,24.20
2018-04-12T15:28:43.805Z,24.30
2018-04-12T15:31:11.301Z,26.70
2018-04-12T15:33:38.804Z,28.30
2018-04-12T15:36:07.084Z,29.20
2018-04-12T15:38:35.539Z,33.10
2018-04-12T15:41:03.031Z,33.10
2018-04-12T15:43:30.505Z,34.70
2018-04-12T15:45:58.205Z,36.30
2018-04-12T15:48:25.673Z,36.50
2018-04-12T15:50:53.272Z,38.60
2018-04-12T15:53:20.764Z,38.20
2018-04-12T15:55:48.299Z,39.80
2018-04-12T15:58:15.800Z,42.30
2018-04-12T16:00:43.339Z,41.50
2018-04-12T16:03:10.831Z,42.40
2018-04-12T16:05:39.073Z,45.20
2018-04-12T16:08:06.598Z,45.20
2018-04-12T16:10:34.937Z,42.90
2018-04-12T16:13:03.187Z,45.90
2018-04-12T16:15:31.458Z,46.60
2018-04-12T16:17:58.996Z,46.80
2018-04-12T16:20:26.490Z,45.90
2018-04-12T16:22:53.994Z,46.30
2018-04-12T16:25:21.519Z,46.60
2018-04-12T16:27:49.776Z,50.70
2018-04-12T16:30:17.340Z,50.00
2018-04-12T16:32:45.005Z,51.10
2018-04-12T16:35:12.518Z,50.90
2018-04-12T16:37:40.095Z,49.10
2018-04-12T16:40:07.568Z,47.80
2018-04-12T16:42:35.122Z,47.60
2018-04-12T16:45:02.698Z,48.40
2018-04-12T16:47:30.181Z,49.40
2018-04-12T16:49:57.656Z,49.80
2018-04-12T16:52:25.159Z,51.30
2018-04-12T16:54:52.644Z,51.20
2018-04-12T16:57:20.924Z,52.80
2018-04-12T16:59:49.179Z,53.30
2018-04-12T17:02:16.654Z,53.30
2018-04-12T17:04:44.943Z,52.20
2018-04-12T17:07:12.418Z,52.20
2018-04-12T17:09:40.665Z,54.70
2018-04-12T17:12:08.956Z,54.20
2018-04-12T17:14:36.442Z,54.20
2018-04-12T17:17:03.929Z,55.10
2018-04-12T17:19:31.481Z,55.40
2018-04-12T17:21:59.776Z,56.80
2018-04-12T17:24:28.037Z,58.20
2018-04-12T17:26:55.586Z,58.20
2018-04-12T17:29:23.332Z,58.30
2018-04-12T17:31:51.726Z,58.50
2018-04-12T17:34:19.310Z,58.00
2018-04-12T17:36:47.549Z,60.70
2018-04-12T17:39:15.074Z,60.60
2018-04-12T17:41:42.546Z,60.30
2018-04-12T17:44:10.049Z,59.10
2018-04-12T17:46:37.569Z,58.90
2018-04-12T17:49:05.040Z,59.90
2018-04-12T17:51:32.541Z,61.60
2018-04-12T17:54:00.102Z,62.80
2018-04-12T17:56:28.376Z,62.60
2018-04-12T17:58:56.653Z,62.90
2018-04-12T18:01:24.893Z,63.10
2018-04-12T18:03:53.198Z,63.10
2018-04-12T18:06:21.485Z,62.80
2018-04-12T18:08:48.988Z,62.70
2018-04-12T18:11:16.487Z,63.00
2018-04-12T18:13:44.738Z,63.80
2018-04-12T18:16:12.278Z,63.70
2018-04-12T18:18:39.851Z,64.70
2018-04-12T18:21:07.323Z,64.90
2018-04-12T18:23:34.825Z,65.40
2018-04-12T18:26:02.355Z,66.60
2018-04-12T18:28:30.660Z,65.60
2018-04-12T18:30:58.921Z,66.60
2018-04-12T18:33:26.455Z,66.60
2018-04-12T18:35:54.697Z,67.40
2018-04-12T18:38:22.247Z,67.40
2018-04-12T18:40:49.732Z,67.20
2018-04-12T18:43:17.248Z,67.40
2018-04-12T18:45:44.756Z,68.70
2018-04-12T18:48:12.253Z,67.30
2018-04-12T18:50:39.768Z,67.50
2018-04-12T18:53:08.028Z,70.10
2018-04-12T18:55:35.579Z,70.10
2018-04-12T18:58:03.116Z,69.70
2018-04-12T19:00:30.623Z,67.80
2018-04-12T19:02:58.875Z,68.00
2018-04-12T19:05:26.565Z,67.80
2018-04-12T19:07:54.089Z,67.00
2018-04-12T19:10:21.618Z,67.80
2018-04-12T19:12:49.149Z,68.40
2018-04-12T19:15:16.781Z,68.40
2018-04-12T19:17:44.302Z,68.40
2018-04-12T19:20:11.832Z,69.00
2018-04-12T19:22:39.362Z,70.40
2018-04-12T19:25:06.887Z,70.40
2018-04-12T19:27:34.456Z,70.60
2018-04-12T19:30:01.987Z,69.90
2018-04-12T19:32:29.574Z,70.80
2018-04-12T19:34:57.063Z,71.40
2018-04-12T19:37:25.350Z,71.60
2018-04-12T19:39:52.847Z,71.60
2018-04-12T19:42:21.203Z,72.80
2018-04-12T19:44:48.692Z,72.80
2018-04-12T19:47:16.183Z,74.40
2018-04-12T19:49:44.483Z,74.20
2018-04-12T19:52:11.982Z,74.20
2018-04-12T19:54:39.463Z,74.40
2018-04-12T19:57:06.968Z,75.70
2018-04-12T19:59:34.462Z,75.80
2018-04-12T20:02:01.963Z,76.40
2018-04-12T20:04:29.485Z,78.50
2018-04-12T20:06:56.975Z,76.40
2018-04-12T20:09:24.502Z,75.90
2018-04-12T20:11:52.001Z,76.20
2018-04-12T20:14:19.527Z,77.00
2018-04-12T20:16:47.793Z,78.70
2018-04-12T20:19:15.307Z,78.70
2018-04-12T20:21:42.810Z,77.40
2018-04-12T20:24:10.295Z,77.90
2018-04-12T20:26:37.827Z,78.70
2018-04-12T20:29:05.317Z,78.60
2018-04-12T20:31:32.793Z,78.80
2018-04-12T20:34:00.349Z,78.40
2018-04-12T20:36:28.600Z,79.50
2018-04-12T20:38:56.106Z,78.70
2018-04-12T20:41:23.594Z,80.80
2018-04-12T20:43:51.114Z,79.20
2018-04-12T20:46:18.613Z,81.10
2018-04-12T20:48:46.899Z,82.20
2018-04-12T20:51:15.213Z,82.80
2018-04-12T20:53:42.695Z,82.80
2018-04-12T20:56:10.277Z,85.10
2018-04-12T20:58:37.773Z,88.50
2018-04-12T21:01:05.246Z,88.40
2018-04-12T21:03:32.778Z,87.80
2018-04-12T21:06:00.301Z,87.10
2018-04-12T21:08:28.634Z,85.30
2018-04-12T21:10:56.134Z,85.30
2018-04-12T21:13:23.650Z,85.00
2018-04-12T21:15:51.277Z,86.20
2018-04-12T21:18:18.820Z,88.70
2018-04-12T21:20:47.102Z,89.00
2018-04-12T21:23:14.593Z,89.00
2018-04-12T21:25:42.100Z,88.40
2018-04-12T21:28:09.723Z,89.10
2018-04-12T21:30:38.854Z,90.50
2018-04-12T21:33:07.137Z,90.10
2018-04-12T21:35:34.688Z,90.10
2018-04-12T21:38:02.278Z,90.00
2018-04-12T21:40:29.903Z,89.90
2018-04-12T21:42:57.431Z,90.10
2018-04-12T21:45:24.940Z,90.30
2018-04-12T21:47:53.258Z,90.50
2018-04-12T21:50:20.812Z,90.50
2018-04-12T21:52:48.337Z,90.50
2018-04-12T21:55:15.872Z,90.70
2018-04-12T21:57:43.391Z,91.20
2018-04-12T22:00:10.879Z,91.10
2018-04-12T22:02:38.502Z,91.40
2018-04-12T22:05:06.030Z,91.40
2018-04-12T22:07:34.289Z,91.80
2018-04-12T22:10:01.806Z,91.80
2018-04-12T22:12:29.445Z,91.80
2018-04-12T22:14:56.990Z,91.50
2018-04-12T22:17:24.562Z,91.60
2018-04-12T22:19:52.136Z,91.60
2018-04-12T22:22:19.737Z,92.00
2018-04-12T22:24:47.265Z,92.60
2018-04-12T22:27:14.754Z,92.40
2018-04-12T22:29:42.293Z,92.60
2018-04-12T22:32:09.808Z,93.20
2018-04-12T22:34:37.290Z,93.30
2018-04-12T22:37:04.765Z,92.80
2018-04-12T22:39:32.274Z,92.70
2018-04-12T22:41:59.783Z,93.10
2018-04-12T22:44:27.354Z,93.00
2018-04-12T22:46:54.839Z,93.00
2018-04-12T22:49:23.129Z,93.10
2018-04-12T22:51:50.641Z,93.10
2018-04-12T22:54:18.148Z,93.50
2018-04-12T22:56:45.641Z,93.50
2018-04-12T22:59:13.146Z,94.20
2018-04-12T23:01:41.396Z,95.00
2018-04-12T23:04:08.900Z,95.00
2018-04-12T23:06:36.382Z,95.70
2018-04-12T23:09:03.882Z,95.40
2018-04-12T23:11:32.139Z,95.30
2018-04-12T23:13:59.712Z,95.30
2018-04-12T23:16:27.969Z,95.60
2018-04-12T23:18:55.451Z,95.60
2018-04-12T23:21:23.719Z,96.70
2018-04-12T23:23:51.199Z,96.70
2018-04-12T23:26:19.208Z,96.60
2018-04-12T23:28:46.705Z,95.80
2018-04-12T23:31:14.956Z,95.60
2018-04-12T23:33:42.476Z,95.60
2018-04-12T23:36:10.204Z,96.00
2018-04-12T23:38:38.455Z,96.10
2018-04-12T23:41:05.970Z,96.00
2018-04-12T23:43:33.484Z,96.50
2018-04-12T23:46:01.008Z,96.40
2018-04-12T23:48:28.615Z,95.80
2018-04-12T23:50:56.879Z,95.50
2018-04-12T23:53:24.389Z,95.50
2018-04-12T23:55:51.946Z,95.60
2018-04-12T23:58:19.434Z,95.60
